Time;durP1;ratioP1;P1;durP2;ratioP2;P2;SDS_P1;SDS_P2;PMS_P1;PMS_P2;Temp;Humidity;BMP_temperature;BMP_pressure;BME280_temperature;BME280_humidity;BME280_pressure;Samples;Min_cycle;Max_cycle;Signal;HPM_P1;HPM_P2
2023/06/04 07:26:07;;;;;;;;;;;;;;;22.16;61.77;96842.88;4159423;28;10441;-67
2023/06/04 07:28:10;;;;;;;;;;;;;;;22.40;61.48;96843.19;4137592;28;5898;-66
2023/06/04 07:30:13;;;;;;;;;;;;;;;22.53;61.21;96848.88;4136159;28;5884;-67
2023/06/04 07:32:16;;;;;;;;;;;;;;;22.64;60.90;96839.72;4140094;28;6045;-68
2023/06/04 07:34:19;;;;;;;;;;;;;;;22.78;60.58;96852.69;4141261;28;5810;-68
2023/06/04 07:36:22;;;;;;;;;;;;;;;22.87;59.93;96853.75;4143044;28;5863;-68
2023/06/04 07:38:26;;;;;;;;;;;;;;;22.94;59.89;96851.63;4138596;28;5765;-66
2023/06/04 07:40:29;;;;;;;;;;;;;;;23.00;59.81;96853.25;4138214;28;5876;-67
2023/06/04 07:42:33;;;;;;;;;;;;;;;23.06;59.21;96846.75;4138514;28;5910;-67
2023/06/04 07:44:38;;;;;;;;;;;;;;;23.11;59.18;96852.16;4135016;28;5957;-67
2023/06/04 07:46:41;;;;;;;;;;;;;;;23.13;59.23;96852.69;4140372;28;5102;-68
2023/06/04 07:48:44;;;;;;;;;;;;;;;23.14;59.27;96846.22;4137026;28;5862;-68
2023/06/04 07:50:47;;;;;;;;;;;;;;;23.17;58.88;96840.25;4132308;28;5797;-68
2023/06/04 07:52:49;;;;;;;;;;;;;;;23.19;58.57;96848.88;4133687;28;5780;-68
2023/06/04 07:54:52;;;;;;;;;;;;;;;23.20;58.81;96845.09;4138535;28;5963;-67
2023/06/04 07:56:55;;;;;;;;;;;;;;;23.23;58.44;96844.59;4131710;28;5976;-70
2023/06/04 07:59:00;;;;;;;;;;;;;;;23.25;58.51;96847.00;4132545;28;6739;-67
2023/06/04 08:01:03;;;;;;;;;;;;;;;23.26;58.33;96843.22;4139771;28;5864;-68
2023/06/04 08:03:06;;;;;;;;;;;;;;;23.26;57.99;96845.91;4129988;28;5858;-68
2023/06/04 08:05:09;;;;;;;;;;;;;;;23.28;57.89;96842.94;4144100;28;5800;-68
2023/06/04 08:07:13;;;;;;;;;;;;;;;;;;4133754;28;5869;-69
2023/06/04 08:09:16;;;;;;;;;;;;;;;23.35;58.06;96838.09;4133464;28;6044;-72
2023/06/04 08:11:22;;;;;;;;;;;;;;;23.34;57.85;96833.78;4140430;28;5090;-67
2023/06/04 08:13:25;;;;;;;;;;;;;;;23.35;58.04;96838.09;4135473;28;5775;-68
2023/06/04 08:15:29;;;;;;;;;;;;;;;23.33;57.85;96837.53;4132125;28;5944;-68
2023/06/04 08:17:32;;;;;;;;;;;;;;;23.30;57.41;96829.97;4142795;28;5742;-67
2023/06/04 08:19:35;;;;;;;;;;;;;;;23.29;57.27;96833.75;4136420;28;5951;-67
2023/06/04 08:21:40;;;;;;;;;;;;;;;23.27;57.61;96828.66;4132576;28;5885;-67
2023/06/04 08:23:43;;;;;;;;;;;;;;;23.27;57.41;96836.75;4133334;28;5817;-67
2023/06/04 08:25:46;;;;;;;;;;;;;;;23.27;57.39;96833.25;4165429;28;5867;-67
2023/06/04 08:27:49;;;;;;;;;;;;;;;23.26;56.85;96829.72;4155931;28;6013;-67
2023/06/04 08:29:52;;;;;;;;;;;;;;;23.28;56.91;96826.75;4159455;28;6618;-67
2023/06/04 08:31:56;;;;;;;;;;;;;;;23.29;56.89;96828.38;4153997;28;6150;-67
2023/06/04 08:33:59;;;;;;;;;;;;;;;;;;4161167;28;5854;-67
2023/06/04 08:36:02;;;;;;;;;;;;;;;23.31;56.64;96820.81;4168638;28;5867;-67
2023/06/04 08:38:05;;;;;;;;;;;;;;;23.28;56.53;96824.88;4158356;28;5957;-67
2023/06/04 08:40:10;;;;;;;;;;;;;;;23.24;56.57;96831.91;4158175;28;5949;-67
2023/06/04 08:42:22;;;;;;;;;;;;;;;23.24;56.55;96831.91;4161738;28;5882;-67
2023/06/04 08:44:25;;;;;;;;;;;;;;;23.26;56.51;96837.03;4158497;28;5910;-66
2023/06/04 08:46:29;;;;;;;;;;;;;;;23.24;56.54;96837.28;4163777;28;6154;-67
2023/06/04 08:48:33;;;;;;;;;;;;;;;23.22;56.43;96829.47;4154805;28;6557;-67
2023/06/04 08:50:37;;;;;;;;;;;;;;;23.24;56.55;96830.00;4159512;28;5847;-66
2023/06/04 08:52:40;;;;;;;;;;;;;;;23.22;56.53;96821.38;4140478;28;6533;-66
2023/06/04 08:54:44;;;;;;;;;;;;;;;23.25;56.05;96830.81;4162770;28;6610;-66
2023/06/04 08:56:47;;;;;;;;;;;;;;;23.24;56.18;96827.31;4173321;28;5882;-66
2023/06/04 08:58:50;;;;;;;;;;;;;;;23.25;56.38;96833.50;4153879;28;5886;-67
2023/06/04 09:00:54;;;;;;;;;;;;;;;23.24;55.68;96827.31;4155246;28;5803;-66
2023/06/04 09:02:58;;;;;;;;;;;;;;;23.23;55.61;96823.00;4161084;28;6591;-66
2023/06/04 09:05:04;;;;;;;;;;;;;;;23.25;55.90;96822.72;4163264;28;5881;-67
2023/06/04 09:07:09;;;;;;;;;;;;;;;23.25;55.88;96825.44;4166541;28;5775;-67
2023/06/04 09:09:15;;;;;;;;;;;;;;;23.28;55.56;96824.88;4165769;28;5786;-67
2023/06/04 09:11:19;;;;;;;;;;;;;;;23.27;55.98;96820.56;4154717;28;5918;-67
2023/06/04 09:13:28;;;;;;;;;;;;;;;23.28;55.49;96822.16;4158397;28;6288;-67
2023/06/04 09:15:31;;;;;;;;;;;;;;;23.30;55.68;96822.69;4166129;28;5759;-67
2023/06/04 09:17:34;;;;;;;;;;;;;;;23.32;55.49;96819.72;4160052;28;5950;-67
2023/06/04 09:19:37;;;;;;;;;;;;;;;;;;4167455;28;5870;-67
2023/06/04 09:21:52;;;;;;;;;;;;;;;23.30;55.51;96819.19;4167446;28;7205;-67
2023/06/04 09:23:55;;;;;;;;;;;;;;;23.29;55.29;96821.09;4167190;28;5902;-67
2023/06/04 09:26:07;;;;;;;;;;;;;;;23.30;55.49;96821.91;4167139;28;6573;-66
2023/06/04 09:28:10;;;;;;;;;;;;;;;23.29;55.30;96818.38;4167745;28;5782;-66
2023/06/04 09:30:13;;;;;;;;;;;;;;;23.29;54.95;96813.00;4167188;28;5918;-66
2023/06/04 09:32:21;;;;;;;;;;;;;;;23.25;55.16;96803.84;4167192;28;5795;-66
2023/06/04 09:34:28;;;;;;;;;;;;;;;23.26;55.04;96810.06;4160023;28;5121;-66
2023/06/04 09:36:32;;;;;;;;;;;;;;;23.29;54.67;96806.78;4167180;28;5745;-67
2023/06/04 09:38:36;;;;;;;;;;;;;;;23.31;54.87;96815.41;4166356;28;5775;-66
2023/06/04 09:40:39;;;;;;;;;;;;;;;23.32;54.62;96808.94;4167010;28;5764;-67
2023/06/04 09:42:44;;;;;;;;;;;;;;;23.31;54.65;96807.31;4167018;28;5961;-66
2023/06/04 09:44:46;;;;;;;;;;;;;;;23.33;54.31;96810.56;4167129;28;5775;-67
2023/06/04 09:46:54;;;;;;;;;;;;;;;23.32;54.65;96803.53;4166681;28;5746;-67
2023/06/04 09:49:02;;;;;;;;;;;;;;;;;;4167197;28;5778;-67
2023/06/04 09:51:09;;;;;;;;;;;;;;;23.33;54.38;96814.09;4159943;28;5815;-67
2023/06/04 09:53:17;;;;;;;;;;;;;;;23.36;54.47;96812.72;4166667;28;5853;-66
2023/06/04 09:55:22;;;;;;;;;;;;;;;23.37;54.19;96808.94;4167036;28;5968;-67
2023/06/04 09:57:26;;;;;;;;;;;;;;;23.39;53.95;96812.97;4167188;28;5758;-66
2023/06/04 09:59:30;;;;;;;;;;;;;;;23.40;54.38;96813.78;4166896;28;5895;-66
2023/06/04 10:01:34;;;;;;;;;;;;;;;23.40;54.10;96816.47;4166614;28;5869;-66
2023/06/04 10:03:39;;;;;;;;;;;;;;;23.43;54.26;96818.63;4166647;28;5793;-66
2023/06/04 10:05:43;;;;;;;;;;;;;;;23.45;54.19;96813.78;4166755;28;5799;-66
2023/06/04 10:07:47;;;;;;;;;;;;;;;23.46;53.75;96813.50;4162138;28;5900;-66
2023/06/04 10:09:51;;;;;;;;;;;;;;;23.46;54.15;96805.41;4164770;28;7854;-66
2023/06/04 10:11:58;;;;;;;;;;;;;;;23.47;53.83;96806.22;4166890;28;5894;-66
2023/06/04 10:14:05;;;;;;;;;;;;;;;23.45;54.13;96806.50;4166315;28;5779;-66
2023/06/04 10:16:08;;;;;;;;;;;;;;;23.43;54.22;96807.81;4150633;28;5813;-66
2023/06/04 10:18:32;;;;;;;;;;;;;;;23.43;54.15;96802.44;4164926;28;5786;-66
2023/06/04 10:20:35;;;;;;;;;;;;;;;23.44;53.84;96804.03;4162640;28;5768;-66
2023/06/04 10:22:38;;;;;;;;;;;;;;;23.42;53.64;96800.81;4166204;28;7770;-67
2023/06/04 10:24:41;;;;;;;;;;;;;;;23.45;53.88;96794.91;4166249;28;5775;-66
2023/06/04 10:26:45;;;;;;;;;;;;;;;23.47;53.92;96796.22;4166726;28;5921;-66
2023/06/04 10:28:50;;;;;;;;;;;;;;;23.49;53.52;96801.34;4166036;28;5926;-66
2023/06/04 10:30:53;;;;;;;;;;;;;;;23.47;53.07;96798.13;4158173;28;6005;-67
2023/06/04 10:32:58;;;;;;;;;;;;;;;23.49;53.39;96798.66;4163032;28;5923;-66
2023/06/04 10:35:07;;;;;;;;;;;;;;;23.52;53.18;96796.19;4166515;28;5849;-66
2023/06/04 10:37:20;;;;;;;;;;;;;;;23.56;53.38;96796.47;4165254;28;5775;-66
2023/06/04 10:39:27;;;;;;;;;;;;;;;23.59;53.36;96790.53;4160548;28;6149;-66
2023/06/04 10:41:30;;;;;;;;;;;;;;;23.62;53.01;96806.19;4165834;28;5807;-66
2023/06/04 10:43:33;;;;;;;;;;;;;;;23.64;53.18;96798.63;4166142;28;5855;-67
2023/06/04 10:45:38;;;;;;;;;;;;;;;23.67;52.72;96797.25;4165557;28;5855;-67
2023/06/04 10:47:41;;;;;;;;;;;;;;;23.68;52.70;96797.00;4165911;28;5904;-67
2023/06/04 10:49:44;;;;;;;;;;;;;;;23.71;52.77;96804.53;4165683;28;5851;-67
2023/06/04 10:51:47;;;;;;;;;;;;;;;23.70;52.67;96794.00;4166075;28;5763;-67
2023/06/04 10:53:50;;;;;;;;;;;;;;;23.69;52.24;96792.41;4165416;28;5882;-67
2023/06/04 10:55:53;;;;;;;;;;;;;;;23.69;52.01;96787.81;4159103;28;5906;-66
2023/06/04 10:57:57;;;;;;;;;;;;;;;23.70;51.89;96784.03;4164884;28;5878;-66
2023/06/04 11:00:03;;;;;;;;;;;;;;;23.68;51.98;96775.41;4165497;28;6464;-67
2023/06/04 11:02:08;;;;;;;;;;;;;;;23.72;51.77;96773.75;4165820;28;5745;-67
2023/06/04 11:04:22;;;;;;;;;;;;;;;23.75;51.14;96773.19;4165715;28;5795;-66
2023/06/04 11:06:27;;;;;;;;;;;;;;;23.80;51.22;96770.47;4166011;28;5874;-67
2023/06/04 11:08:31;;;;;;;;;;;;;;;23.84;50.84;96767.22;4165616;28;5805;-66
2023/06/04 11:10:35;;;;;;;;;;;;;;;23.87;50.86;96761.25;4166017;28;6513;-66
2023/06/04 11:12:45;;;;;;;;;;;;;;;23.89;50.48;96762.59;4165320;28;5836;-66
2023/06/04 11:14:55;;;;;;;;;;;;;;;23.92;50.71;96762.03;4165657;28;5858;-67
2023/06/04 11:16:58;;;;;;;;;;;;;;;23.95;50.31;96755.28;4165409;28;5947;-67
2023/06/04 11:19:03;;;;;;;;;;;;;;;23.98;50.07;96747.41;4165609;28;7734;-67
2023/06/04 11:21:06;;;;;;;;;;;;;;;24.02;49.85;96755.78;4165845;28;5790;-67
2023/06/04 11:23:09;;;;;;;;;;;;;;;24.03;49.78;96752.00;4165883;28;5919;-67
2023/06/04 11:25:15;;;;;;;;;;;;;;;24.05;49.80;96745.22;4165886;28;5832;-67
2023/06/04 11:27:18;;;;;;;;;;;;;;;24.11;49.59;96748.69;4165765;28;5772;-66
2023/06/04 11:29:38;;;;;;;;;;;;;;;24.13;49.25;96751.94;4165941;28;5849;-67
2023/06/04 11:31:45;;;;;;;;;;;;;;;24.17;49.47;96757.56;4165477;28;5919;-66
2023/06/04 11:33:49;;;;;;;;;;;;;;;24.20;49.30;96752.41;4152900;28;6122;-67
2023/06/04 11:35:53;;;;;;;;;;;;;;;24.22;49.00;96755.63;4164157;28;5870;-67
2023/06/04 11:37:57;;;;;;;;;;;;;;;24.24;48.95;96753.47;4165973;28;5123;-67
2023/06/04 11:40:01;;;;;;;;;;;;;;;24.24;48.85;96748.06;4165915;28;5779;-66
2023/06/04 11:42:07;;;;;;;;;;;;;;;24.29;49.00;96750.72;4165898;28;5901;-67
2023/06/04 11:44:09;;;;;;;;;;;;;;;24.34;48.81;96742.59;4165207;28;5772;-66
2023/06/04 11:46:13;;;;;;;;;;;;;;;24.37;48.72;96736.66;4164772;28;5896;-67
2023/06/04 11:48:16;;;;;;;;;;;;;;;24.41;48.52;96733.38;4165873;28;5859;-67
2023/06/04 11:50:20;;;;;;;;;;;;;;;24.42;48.64;96734.97;4158980;28;5995;-67
2023/06/04 11:52:24;;;;;;;;;;;;;;;24.44;48.38;96736.31;4165694;28;5873;-66
2023/06/04 11:54:27;;;;;;;;;;;;;;;24.45;48.25;96735.22;4165483;28;5854;-66
2023/06/04 11:56:30;;;;;;;;;;;;;;;24.48;48.22;96740.06;4165812;28;5779;-67
2023/06/04 11:58:33;;;;;;;;;;;;;;;24.49;47.86;96744.38;4165537;28;5750;-68
2023/06/04 12:00:37;;;;;;;;;;;;;;;24.51;47.76;96736.78;4165521;28;5866;-67
2023/06/04 12:02:48;;;;;;;;;;;;;;;24.51;47.71;96739.50;4168809;28;5799;-66
2023/06/04 12:04:51;;;;;;;;;;;;;;;24.52;47.54;96743.00;4168706;28;5768;-66
2023/06/04 12:06:56;;;;;;;;;;;;;;;24.50;47.71;96746.00;4163351;28;5904;-66
2023/06/04 12:09:00;;;;;;;;;;;;;;;24.50;47.27;96739.78;4168048;28;6248;-67
2023/06/04 12:11:03;;;;;;;;;;;;;;;24.50;47.46;96732.50;4168831;28;5844;-67
2023/06/04 12:13:06;;;;;;;;;;;;;;;24.50;47.44;96743.28;4160553;28;5791;-67
2023/06/04 12:15:10;;;;;;;;;;;;;;;24.51;47.18;96741.41;4168564;28;5787;-67
2023/06/04 12:17:13;;;;;;;;;;;;;;;24.52;47.23;96748.41;4168521;28;6534;-67
2023/06/04 12:19:16;;;;;;;;;;;;;;;24.52;46.83;96751.13;4168574;28;5880;-67
2023/06/04 12:21:26;;;;;;;;;;;;;;;24.53;46.76;96740.03;4168252;28;5876;-67
2023/06/04 12:23:30;;;;;;;;;;;;;;;24.53;46.57;96726.50;4165789;28;5911;-67
2023/06/04 12:25:37;;;;;;;;;;;;;;;24.57;46.73;96735.66;4164120;28;5847;-67
2023/06/04 12:27:48;;;;;;;;;;;;;;;24.59;46.35;96727.28;4168500;28;6529;-67
2023/06/04 12:29:56;;;;;;;;;;;;;;;24.60;46.51;96718.09;4167977;28;5828;-67
2023/06/04 12:32:07;;;;;;;;;;;;;;;24.65;46.23;96712.63;4157043;28;5807;-67
2023/06/04 12:34:14;;;;;;;;;;;;;;;24.68;46.34;96720.16;4161296;28;5795;-67
2023/06/04 12:36:17;;;;;;;;;;;;;;;24.70;46.24;96714.47;4168163;28;5998;-67
2023/06/04 12:38:20;;;;;;;;;;;;;;;24.70;46.00;96712.59;4168006;28;5803;-67
2023/06/04 12:40:23;;;;;;;;;;;;;;;24.74;45.88;96707.41;4167859;28;5946;-67
2023/06/04 12:42:27;;;;;;;;;;;;;;;24.74;45.67;96719.03;4167766;28;5807;-68
2023/06/04 12:44:30;;;;;;;;;;;;;;;24.76;46.11;96714.13;4167445;28;5783;-68
2023/06/04 12:46:37;;;;;;;;;;;;;;;24.82;46.19;96715.69;4166692;28;5859;-68
2023/06/04 12:48:40;;;;;;;;;;;;;;;24.93;46.01;96716.41;4167909;28;5779;-68
2023/06/04 12:50:43;;;;;;;;;;;;;;;25.01;45.64;96709.53;4167146;28;5938;-68
2023/06/04 12:52:46;;;;;;;;;;;;;;;25.09;45.77;96708.94;4167129;28;5786;-68
2023/06/04 12:54:49;;;;;;;;;;;;;;;25.12;45.67;96703.75;4167523;28;5816;-68
2023/06/04 12:56:52;;;;;;;;;;;;;;;25.17;45.71;96698.31;4167858;28;5879;-68
2023/06/04 12:58:57;;;;;;;;;;;;;;;25.23;45.75;96699.03;4160495;28;5763;-68
2023/06/04 13:01:00;;;;;;;;;;;;;;;25.24;45.29;96689.81;4159950;28;5890;-68
2023/06/04 13:03:03;;;;;;;;;;;;;;;25.24;45.39;96681.72;4159495;28;5833;-68
2023/06/04 13:05:07;;;;;;;;;;;;;;;25.26;45.47;96676.84;4160085;28;5846;-68
2023/06/04 13:07:10;;;;;;;;;;;;;;;25.27;45.32;96688.47;4166715;28;6461;-68
2023/06/04 13:09:14;;;;;;;;;;;;;;;25.29;45.46;96675.44;4167537;28;5870;-68
2023/06/04 13:11:17;;;;;;;;;;;;;;;25.29;45.49;96670.84;4167580;28;5800;-68
2023/06/04 13:13:21;;;;;;;;;;;;;;;25.31;45.13;96678.66;4167159;28;5795;-68
2023/06/04 13:15:25;;;;;;;;;;;;;;;25.29;44.85;96676.25;4157164;28;6493;-68
2023/06/04 13:17:28;;;;;;;;;;;;;;;25.28;44.48;96680.06;4153952;28;5873;-67
2023/06/04 13:19:31;;;;;;;;;;;;;;;25.30;44.71;96680.56;4167337;28;5775;-67
2023/06/04 13:21:35;;;;;;;;;;;;;;;25.32;44.90;96681.06;4167267;28;5609;-67
2023/06/04 13:23:38;;;;;;;;;;;;;;;25.35;44.88;96690.50;4167378;28;6024;-67
2023/06/04 13:25:52;;;;;;;;;;;;;;;25.37;44.96;96693.72;4167088;28;5901;-67
2023/06/04 13:27:55;;;;;;;;;;;;;;;25.39;44.77;96705.09;4167325;28;5865;-68
2023/06/04 13:29:58;;;;;;;;;;;;;;;25.43;44.72;96704.22;4166140;28;5786;-68
2023/06/04 13:32:02;;;;;;;;;;;;;;;25.48;44.82;96711.44;4160836;28;5796;-67
2023/06/04 13:34:05;;;;;;;;;;;;;;;25.49;44.85;96711.19;4158914;28;5774;-68
2023/06/04 13:36:27;;;;;;;;;;;;;;;25.51;44.71;96722.50;4167540;28;6576;-68
2023/06/04 13:38:30;;;;;;;;;;;;;;;25.52;44.84;96721.41;4167127;28;5871;-68
2023/06/04 13:40:35;;;;;;;;;;;;;;;25.51;44.87;96727.13;4166783;28;5828;-67
2023/06/04 13:42:38;;;;;;;;;;;;;;;25.49;45.12;96729.31;4166886;28;5986;-68
2023/06/04 13:44:41;;;;;;;;;;;;;;;25.45;45.21;96726.38;4166726;28;5239;-67
2023/06/04 13:46:43;;;;;;;;;;;;;;;25.40;45.33;96722.94;4166756;28;5800;-68
2023/06/04 13:48:48;;;;;;;;;;;;;;;25.36;45.84;96717.28;4166278;28;5886;-68
2023/06/04 13:50:51;;;;;;;;;;;;;;;25.34;45.65;96711.34;4166678;28;5775;-68
2023/06/04 13:52:53;;;;;;;;;;;;;;;25.36;46.02;96714.56;4166627;28;5842;-67
2023/06/04 13:54:58;;;;;;;;;;;;;;;25.36;46.02;96706.44;4166814;28;5887;-68
2023/06/04 13:57:03;;;;;;;;;;;;;;;25.36;45.85;96706.44;4166969;28;6623;-67
2023/06/04 13:59:06;;;;;;;;;;;;;;;25.37;45.84;96718.06;4158949;28;5870;-67
2023/06/04 14:01:10;;;;;;;;;;;;;;;25.35;46.21;96707.53;4166865;28;5775;-67
2023/06/04 14:03:13;;;;;;;;;;;;;;;25.36;45.97;96705.66;4166588;28;5787;-67
2023/06/04 14:05:18;;;;;;;;;;;;;;;25.38;46.34;96701.56;4166194;28;5877;-66
2023/06/04 14:07:21;;;;;;;;;;;;;;;25.41;45.86;96709.09;4149049;28;5808;-66
2023/06/04 14:09:24;;;;;;;;;;;;;;;25.43;46.17;96708.81;4166681;28;5790;-66
2023/06/04 14:11:27;;;;;;;;;;;;;;;25.44;46.08;96703.09;4166843;28;5783;-68
2023/06/04 14:13:30;;;;;;;;;;;;;;;25.47;45.85;96704.41;4166633;28;6691;-68
2023/06/04 14:15:33;;;;;;;;;;;;;;;25.48;45.87;96701.44;4166420;28;5779;-67
2023/06/04 14:17:36;;;;;;;;;;;;;;;25.50;46.10;96706.56;4136374;28;5913;-66
2023/06/04 14:19:40;;;;;;;;;;;;;;;25.53;45.56;96714.91;4163085;28;6537;-66
2023/06/04 14:21:44;;;;;;;;;;;;;;;25.56;45.58;96716.22;4166576;28;5779;-67
2023/06/04 14:23:50;;;;;;;;;;;;;;;25.61;45.64;96707.25;4165493;28;5890;-67
2023/06/04 14:25:53;;;;;;;;;;;;;;;25.66;45.45;96712.56;4166174;28;5889;-67
2023/06/04 14:27:56;;;;;;;;;;;;;;;25.67;45.71;96711.47;4166027;28;5775;-66
2023/06/04 14:29:59;;;;;;;;;;;;;;;25.69;45.80;96706.56;4166455;28;5875;-66
2023/06/04 14:32:02;;;;;;;;;;;;;;;25.72;45.65;96714.97;4165940;28;5775;-67
2023/06/04 14:34:06;;;;;;;;;;;;;;;25.74;46.08;96715.47;4166119;28;5878;-66
2023/06/04 14:36:10;;;;;;;;;;;;;;;25.76;45.93;96709.75;4166374;28;5802;-67
2023/06/04 14:38:15;;;;;;;;;;;;;;;25.76;45.95;96712.47;4166338;28;5783;-67
2023/06/04 14:40:18;;;;;;;;;;;;;;;25.71;46.20;96715.22;4158845;28;5958;-68
2023/06/04 14:42:21;;;;;;;;;;;;;;;25.69;46.29;96711.97;4166222;28;5829;-67
2023/06/04 14:44:24;;;;;;;;;;;;;;;25.68;46.37;96711.19;4165740;28;5766;-67
2023/06/04 14:46:27;;;;;;;;;;;;;;;25.67;46.23;96703.34;4166178;28;5900;-67
2023/06/04 14:48:30;;;;;;;;;;;;;;;25.65;46.18;96700.94;4166251;28;5886;-67
2023/06/04 14:50:34;;;;;;;;;;;;;;;25.61;46.14;96693.72;4148509;28;5787;-67
2023/06/04 14:52:37;;;;;;;;;;;;;;;25.58;46.32;96689.66;4166006;28;5775;-67
2023/06/04 14:54:41;;;;;;;;;;;;;;;25.57;46.37;96698.06;4165935;28;5844;-67
2023/06/04 14:56:44;;;;;;;;;;;;;;;25.57;46.38;96693.47;4161404;28;5898;-67
2023/06/04 14:58:47;;;;;;;;;;;;;;;25.57;46.56;96698.88;4163651;28;5760;-67
2023/06/04 15:00:50;;;;;;;;;;;;;;;25.56;46.61;96697.28;4165552;28;5783;-67
2023/06/04 15:02:53;;;;;;;;;;;;;;;25.51;46.29;96690.03;4165658;28;5898;-67
2023/06/04 15:04:56;;;;;;;;;;;;;;;25.47;46.60;96686.28;4165546;28;7765;-67
2023/06/04 15:06:59;;;;;;;;;;;;;;;25.44;46.35;96692.28;4165946;28;7127;-67
2023/06/04 15:09:03;;;;;;;;;;;;;;;25.41;46.33;96684.75;4165778;28;5882;-67
2023/06/04 15:11:07;;;;;;;;;;;;;;;25.39;46.27;96686.94;4157471;28;7746;-67
2023/06/04 15:13:12;;;;;;;;;;;;;;;25.35;46.18;96691.31;4163251;28;5910;-67
2023/06/04 15:15:15;;;;;;;;;;;;;;;25.30;46.34;96696.81;4155262;28;7485;-68
2023/06/04 15:17:18;;;;;;;;;;;;;;;25.24;46.01;96701.44;4166860;28;5967;-68
2023/06/04 15:19:21;;;;;;;;;;;;;;;25.22;45.73;96708.25;4166990;28;5810;-68
2023/06/04 15:21:24;;;;;;;;;;;;;;;25.18;45.78;96707.22;4167113;28;5870;-68
2023/06/04 15:23:27;;;;;;;;;;;;;;;25.12;45.81;96702.97;4167138;28;5833;-67
2023/06/04 15:25:31;;;;;;;;;;;;;;;25.06;45.69;96714.94;4166805;28;5792;-67
2023/06/04 15:27:38;;;;;;;;;;;;;;;24.98;45.70;96714.44;4167212;28;5784;-67
2023/06/04 15:29:41;;;;;;;;;;;;;;;24.93;45.68;96721.81;4166988;28;5837;-67
2023/06/04 15:31:46;;;;;;;;;;;;;;;24.91;45.50;96723.97;4166485;28;6574;-67
2023/06/04 15:33:49;;;;;;;;;;;;;;;24.89;45.17;96718.84;4167137;28;5855;-67
2023/06/04 15:35:52;;;;;;;;;;;;;;;24.85;45.18;96717.81;4149929;28;5688;-67
2023/06/04 15:37:55;;;;;;;;;;;;;;;24.86;44.88;96716.72;4170416;28;5232;-67
2023/06/04 15:39:59;;;;;;;;;;;;;;;24.83;44.39;96722.72;4170108;28;5800;-67
2023/06/04 15:42:02;;;;;;;;;;;;;;;24.81;44.23;96724.91;4169490;28;5771;-67
2023/06/04 15:44:06;;;;;;;;;;;;;;;24.77;44.27;96737.38;4170053;28;5759;-67
2023/06/04 15:46:09;;;;;;;;;;;;;;;24.74;43.90;96729.84;4170196;28;6084;-67
2023/06/04 15:48:13;;;;;;;;;;;;;;;24.71;44.11;96730.41;4169045;28;6390;-67
2023/06/04 15:50:16;;;;;;;;;;;;;;;24.70;43.72;96730.69;4170416;28;5759;-67
2023/06/04 15:52:20;;;;;;;;;;;;;;;24.69;43.58;96727.19;4170126;28;5922;-67
2023/06/04 15:54:23;;;;;;;;;;;;;;;24.67;43.47;96734.75;4169976;28;6005;-67
2023/06/04 15:56:45;;;;;;;;;;;;;;;24.65;43.34;96731.53;4169738;28;5986;-67
2023/06/04 15:58:49;;;;;;;;;;;;;;;24.63;43.24;96733.72;4169870;28;5882;-66
2023/06/04 16:00:53;;;;;;;;;;;;;;;24.60;43.15;96729.69;4169785;28;5762;-67
2023/06/04 16:02:55;;;;;;;;;;;;;;;24.60;43.12;96735.09;4169872;28;5804;-67
2023/06/04 16:04:58;;;;;;;;;;;;;;;24.60;43.03;96734.28;4163641;28;5804;-67
2023/06/04 16:07:01;;;;;;;;;;;;;;;24.56;42.84;96744.03;4169022;28;5782;-67
2023/06/04 16:09:05;;;;;;;;;;;;;;;24.54;42.89;96746.22;4161479;28;5791;-67
2023/06/04 16:11:08;;;;;;;;;;;;;;;24.53;42.87;96739.22;4154901;28;5878;-67
2023/06/04 16:13:12;;;;;;;;;;;;;;;24.52;42.74;96733.00;4168080;28;5882;-67
2023/06/04 16:15:15;;;;;;;;;;;;;;;24.52;42.36;96726.78;4164011;28;5779;-66
2023/06/04 16:17:19;;;;;;;;;;;;;;;24.53;42.43;96729.22;4169440;28;5801;-67
2023/06/04 16:19:22;;;;;;;;;;;;;;;24.50;42.52;96723.56;4169335;28;5786;-67
2023/06/04 16:21:28;;;;;;;;;;;;;;;24.48;42.45;96718.47;4160536;28;6492;-66
2023/06/04 16:23:31;;;;;;;;;;;;;;;24.48;42.45;96714.94;4167592;28;5917;-66
2023/06/04 16:25:36;;;;;;;;;;;;;;;24.52;41.98;96719.50;4167897;28;7623;-67
2023/06/04 16:27:39;;;;;;;;;;;;;;;24.56;41.95;96715.13;4165625;28;5796;-67
2023/06/04 16:29:42;;;;;;;;;;;;;;;24.58;41.65;96714.88;4151775;28;5762;-67
2023/06/04 16:31:44;;;;;;;;;;;;;;;24.58;41.76;96712.16;4163557;28;7773;-67
2023/06/04 16:33:49;;;;;;;;;;;;;;;24.60;42.08;96708.06;4168489;28;6005;-67
2023/06/04 16:35:52;;;;;;;;;;;;;;;24.61;41.90;96711.59;4168134;28;5787;-67
2023/06/04 16:37:55;;;;;;;;;;;;;;;24.63;41.41;96712.09;4168414;28;6468;-67
2023/06/04 16:39:58;;;;;;;;;;;;;;;24.59;41.30;96709.16;4160891;28;5846;-66
2023/06/04 16:42:02;;;;;;;;;;;;;;;24.60;41.65;96707.28;4142368;28;5100;-68
2023/06/04 16:44:05;;;;;;;;;;;;;;;24.64;41.40;96717.22;4165190;28;5746;-67
2023/06/04 16:46:08;;;;;;;;;;;;;;;24.63;41.41;96712.09;4161704;28;5790;-67
2023/06/04 16:48:11;;;;;;;;;;;;;;;24.63;41.09;96706.69;4167358;28;5838;-66
2023/06/04 16:50:16;;;;;;;;;;;;;;;24.64;41.42;96716.41;4167278;28;5798;-66
2023/06/04 16:52:19;;;;;;;;;;;;;;;24.63;40.89;96706.69;4158555;28;5909;-67
2023/06/04 16:54:22;;;;;;;;;;;;;;;24.59;41.21;96702.97;4160260;28;5885;-67
2023/06/04 16:56:25;;;;;;;;;;;;;;;24.58;41.00;96712.16;4162635;28;5248;-67
2023/06/04 16:58:28;;;;;;;;;;;;;;;24.57;40.71;96708.63;4166142;28;5796;-66
2023/06/04 17:00:32;;;;;;;;;;;;;;;24.57;40.73;96702.41;4164826;28;5925;-69
2023/06/04 17:02:36;;;;;;;;;;;;;;;24.55;40.86;96707.31;4159855;28;5763;-67
2023/06/04 17:04:39;;;;;;;;;;;;;;;24.55;40.91;96710.00;4157102;28;5815;-67
2023/06/04 17:06:45;;;;;;;;;;;;;;;24.56;40.60;96709.72;4160644;28;5134;-67
2023/06/04 17:08:48;;;;;;;;;;;;;;;24.58;40.67;96714.88;4160762;28;5915;-68
2023/06/04 17:10:50;;;;;;;;;;;;;;;24.58;40.37;96718.38;4164014;28;5850;-66
2023/06/04 17:12:53;;;;;;;;;;;;;;;24.57;40.39;96719.44;4167527;28;6659;-67
2023/06/04 17:14:56;;;;;;;;;;;;;;;24.55;40.43;96712.72;4162942;28;5951;-68
2023/06/04 17:16:59;;;;;;;;;;;;;;;24.54;40.22;96711.91;4152904;28;5790;-66
2023/06/04 17:19:02;;;;;;;;;;;;;;;24.55;40.25;96710.00;4150761;28;5921;-67
2023/06/04 17:21:05;;;;;;;;;;;;;;;24.53;40.27;96713.00;4154434;28;5997;-67
2023/06/04 17:23:21;;;;;;;;;;;;;;;24.54;40.08;96709.19;4158125;28;6634;-67
2023/06/04 17:25:24;;;;;;;;;;;;;;;24.57;40.45;96715.94;4162624;28;5986;-67
2023/06/04 17:27:27;;;;;;;;;;;;;;;24.60;40.08;96718.09;4152830;28;6018;-67
2023/06/04 17:29:30;;;;;;;;;;;;;;;24.60;39.84;96715.38;4154989;28;5933;-66
2023/06/04 17:31:32;;;;;;;;;;;;;;;24.60;39.84;96709.97;4157264;28;6385;-67
2023/06/04 17:33:35;;;;;;;;;;;;;;;24.60;40.27;96710.78;4158851;28;5775;-67
2023/06/04 17:35:39;;;;;;;;;;;;;;;24.60;40.14;96718.88;4162294;28;5900;-67
2023/06/04 17:37:42;;;;;;;;;;;;;;;24.60;40.21;96716.19;4162011;28;5783;-67
2023/06/04 17:39:46;;;;;;;;;;;;;;;24.59;40.00;96716.47;4159471;28;5828;-68
2023/06/04 17:41:49;;;;;;;;;;;;;;;24.58;40.10;96721.06;4161064;28;5779;-68
2023/06/04 17:43:52;;;;;;;;;;;;;;;24.58;40.14;96721.06;4167222;28;6020;-67
2023/06/04 17:45:55;;;;;;;;;;;;;;;24.56;40.68;96720.53;4160539;28;5799;-67
2023/06/04 17:48:00;;;;;;;;;;;;;;;24.56;40.59;96717.03;4164302;28;6013;-67
2023/06/04 17:50:06;;;;;;;;;;;;;;;24.55;40.88;96715.41;4161112;28;5874;-67
2023/06/04 17:52:09;;;;;;;;;;;;;;;24.56;40.72;96715.13;4160346;28;5881;-67
2023/06/04 17:54:12;;;;;;;;;;;;;;;24.55;40.50;96710.81;4167022;28;6008;-68
2023/06/04 17:56:17;;;;;;;;;;;;;;;24.57;41.12;96705.91;4162708;28;5976;-67
2023/06/04 17:58:20;;;;;;;;;;;;;;;24.58;40.99;96717.56;4159602;28;5776;-68
2023/06/04 18:00:23;;;;;;;;;;;;;;;24.60;40.78;96710.78;4160309;28;5994;-67
2023/06/04 18:02:26;;;;;;;;;;;;;;;24.62;41.08;96711.28;4160130;28;5815;-67
2023/06/04 18:04:29;;;;;;;;;;;;;;;24.58;40.57;96717.56;4153208;28;5879;-67
2023/06/04 18:06:32;;;;;;;;;;;;;;;24.56;41.19;96717.03;4153378;28;5791;-68
2023/06/04 18:08:35;;;;;;;;;;;;;;;24.59;40.88;96716.47;4162685;28;5764;-68
2023/06/04 18:10:38;;;;;;;;;;;;;;;24.61;41.10;96714.28;4167192;28;5487;-68
2023/06/04 18:12:45;;;;;;;;;;;;;;;24.66;40.79;96716.94;4166392;28;5779;-69
2023/06/04 18:14:48;;;;;;;;;;;;;;;24.68;41.17;96720.16;4162367;28;5783;-69
2023/06/04 18:16:51;;;;;;;;;;;;;;;24.64;41.05;96717.22;4166422;28;5783;-70
2023/06/04 18:18:54;;;;;;;;;;;;;;;24.61;41.03;96717.00;4165036;28;5775;-70
2023/06/04 18:20:57;;;;;;;;;;;;;;;24.63;41.26;96707.50;4165964;28;5915;-70
2023/06/04 18:23:00;;;;;;;;;;;;;;;24.64;40.97;96702.91;4157589;28;5803;-69